sensor_id;sensor_type;location;lat;lon;timestamp;P1;P2;P0
72329;PMS5003;60660;52.076;5.110;2023-03-08T05:24:15;3;3;
72329;PMS5003;60660;52.076;5.110;2023-03-08T05:26:40;5;4;
72329;PMS5003;60660;52.076;5.110;2023-03-08T05:29:05;4;4;
72329;PMS5003;60660;52.076;5.110;2023-03-08T05:31:31;4;4;
72329;PMS5003;60660;52.076;5.110;2023-03-08T05:33:56;4;4;
72329;PMS5003;60660;52.076;5.110;2023-03-08T05:36:21;5;4;
72329;PMS5003;60660;52.076;5.110;2023-03-08T05:38:46;6;5;
72329;PMS5003;60660;52.076;5.110;2023-03-08T05:41:12;5;5;
72329;PMS5003;60660;52.076;5.110;2023-03-08T05:43:36;6;5;
72329;PMS5003;60660;52.076;5.110;2023-03-08T05:46:02;5;5;
72329;PMS5003;60660;52.076;5.110;2023-03-08T05:48:27;7;7;
72329;PMS5003;60660;52.076;5.110;2023-03-08T05:50:52;5;5;
72329;PMS5003;60660;52.076;5.110;2023-03-08T05:53:17;6;6;
72329;PMS5003;60660;52.076;5.110;2023-03-08T05:55:42;6;6;
72329;PMS5003;60660;52.076;5.110;2023-03-08T05:58:07;6;6;
72329;PMS5003;60660;52.076;5.110;2023-03-08T06:00:32;4;4;
72329;PMS5003;60660;52.076;5.110;2023-03-08T06:02:57;6;6;
72329;PMS5003;60660;52.076;5.110;2023-03-08T06:05:22;6;6;
72329;PMS5003;60660;52.076;5.110;2023-03-08T06:07:47;5;5;
72329;PMS5003;60660;52.076;5.110;2023-03-08T06:10:12;6;6;
72329;PMS5003;60660;52.076;5.110;2023-03-08T06:12:38;5;5;
72329;PMS5003;60660;52.076;5.110;2023-03-08T06:15:03;5;4;
72329;PMS5003;60660;52.076;5.110;2023-03-08T06:17:28;7;6;
72329;PMS5003;60660;52.076;5.110;2023-03-08T06:19:53;5;3;
72329;PMS5003;60660;52.076;5.110;2023-03-08T06:22:18;4;3;
72329;PMS5003;60660;52.076;5.110;2023-03-08T06:24:43;6;6;
72329;PMS5003;60660;52.076;5.110;2023-03-08T06:27:08;6;6;
72329;PMS5003;60660;52.076;5.110;2023-03-08T06:29:33;5;5;
72329;PMS5003;60660;52.076;5.110;2023-03-08T06:31:58;4;4;
72329;PMS5003;60660;52.076;5.110;2023-03-08T06:34:23;5;5;
72329;PMS5003;60660;52.076;5.110;2023-03-08T06:36:48;5;5;
72329;PMS5003;60660;52.076;5.110;2023-03-08T06:39:14;5;5;
72329;PMS5003;60660;52.076;5.110;2023-03-08T06:41:39;5;5;
72329;PMS5003;60660;52.076;5.110;2023-03-08T06:44:04;5;5;
72329;PMS5003;60660;52.076;5.110;2023-03-08T06:46:30;5;5;
72329;PMS5003;60660;52.076;5.110;2023-03-08T06:48:55;4;4;
72329;PMS5003;60660;52.076;5.110;2023-03-08T06:51:20;5;5;
72329;PMS5003;60660;52.076;5.110;2023-03-08T06:53:45;5;5;
72329;PMS5003;60660;52.076;5.110;2023-03-08T06:56:11;5;5;
72329;PMS5003;60660;52.076;5.110;2023-03-08T06:58:36;4;3;
72329;PMS5003;60660;52.076;5.110;2023-03-08T07:01:02;4;4;
72329;PMS5003;60660;52.076;5.110;2023-03-08T07:03:27;9;8;
72329;PMS5003;60660;52.076;5.110;2023-03-08T07:05:56;6;6;
72329;PMS5003;60660;52.076;5.110;2023-03-08T07:08:19;5;5;
72329;PMS5003;60660;52.076;5.110;2023-03-08T07:10:45;4;4;
72329;PMS5003;60660;52.076;5.110;2023-03-08T07:13:11;5;5;
72329;PMS5003;60660;52.076;5.110;2023-03-08T07:15:38;5;5;
72329;PMS5003;60660;52.076;5.110;2023-03-08T07:18:02;7;6;
72329;PMS5003;60660;52.076;5.110;2023-03-08T07:20:28;3;3;
72329;PMS5003;60660;52.076;5.110;2023-03-08T07:22:54;5;5;
72329;PMS5003;60660;52.076;5.110;2023-03-08T07:25:20;6;5;
72329;PMS5003;60660;52.076;5.110;2023-03-08T07:27:46;6;5;
72329;PMS5003;60660;52.076;5.110;2023-03-08T07:30:12;6;6;
72329;PMS5003;60660;52.076;5.110;2023-03-08T07:32:37;6;5;
72329;PMS5003;60660;52.076;5.110;2023-03-08T07:35:03;10;8;
72329;PMS5003;60660;52.076;5.110;2023-03-08T07:37:28;6;6;
72329;PMS5003;60660;52.076;5.110;2023-03-08T07:39:53;4;4;
72329;PMS5003;60660;52.076;5.110;2023-03-08T07:42:19;7;6;
72329;PMS5003;60660;52.076;5.110;2023-03-08T07:44:45;7;7;
72329;PMS5003;60660;52.076;5.110;2023-03-08T07:47:11;4;4;
72329;PMS5003;60660;52.076;5.110;2023-03-08T07:49:37;5;4;
72329;PMS5003;60660;52.076;5.110;2023-03-08T07:52:03;4;4;
72329;PMS5003;60660;52.076;5.110;2023-03-08T07:54:28;6;6;
72329;PMS5003;60660;52.076;5.110;2023-03-08T07:56:54;10;6;
72329;PMS5003;60660;52.076;5.110;2023-03-08T07:59:20;7;7;
72329;PMS5003;60660;52.076;5.110;2023-03-08T08:01:46;4;4;
72329;PMS5003;60660;52.076;5.110;2023-03-08T10:28:56;63;54;
72329;PMS5003;60660;52.076;5.110;2023-03-08T10:29:02;63;54;
72329;PMS5003;60660;52.076;5.110;2023-03-08T10:31:24;51;42;
72329;PMS5003;60660;52.076;5.110;2023-03-08T10:37:14;54;47;
72329;PMS5003;60660;52.076;5.110;2023-03-08T10:39:46;56;49;
72329;PMS5003;60660;52.076;5.110;2023-03-08T10:45:20;70;58;
72329;PMS5003;60660;52.076;5.110;2023-03-08T10:48:22;54;44;
72329;PMS5003;60660;52.076;5.110;2023-03-08T10:50:56;56;51;
72329;PMS5003;60660;52.076;5.110;2023-03-08T10:53:14;61;55;
72329;PMS5003;60660;52.076;5.110;2023-03-08T10:55:42;59;51;
72329;PMS5003;60660;52.076;5.110;2023-03-08T10:58:01;52;45;
72329;PMS5003;60660;52.076;5.110;2023-03-08T11:00:30;52;49;
72329;PMS5003;60660;52.076;5.110;2023-03-08T11:03:00;51;48;
72329;PMS5003;60660;52.076;5.110;2023-03-08T11:05:24;56;47;
72329;PMS5003;60660;52.076;5.110;2023-03-08T11:07:49;48;44;
72329;PMS5003;60660;52.076;5.110;2023-03-08T11:10:13;52;49;
72329;PMS5003;60660;52.076;5.110;2023-03-08T11:12:34;57;49;
72329;PMS5003;60660;52.076;5.110;2023-03-08T11:14:59;47;40;
72329;PMS5003;60660;52.076;5.110;2023-03-08T11:17:34;48;45;
72329;PMS5003;60660;52.076;5.110;2023-03-08T11:20:02;53;46;
72329;PMS5003;60660;52.076;5.110;2023-03-08T11:22:30;46;42;
72329;PMS5003;60660;52.076;5.110;2023-03-08T11:24:51;47;40;
72329;PMS5003;60660;52.076;5.110;2023-03-08T11:27:19;44;42;
72329;PMS5003;60660;52.076;5.110;2023-03-08T11:29:43;43;40;
72329;PMS5003;60660;52.076;5.110;2023-03-08T11:32:08;55;51;
72329;PMS5003;60660;52.076;5.110;2023-03-08T11:34:37;43;39;
72329;PMS5003;60660;52.076;5.110;2023-03-08T11:36:58;44;38;
72329;PMS5003;60660;52.076;5.110;2023-03-08T11:39:23;47;41;
72329;PMS5003;60660;52.076;5.110;2023-03-08T11:41:49;43;39;
72329;PMS5003;60660;52.076;5.110;2023-03-08T11:44:20;50;42;
72329;PMS5003;60660;52.076;5.110;2023-03-08T11:46:44;52;43;
72329;PMS5003;60660;52.076;5.110;2023-03-08T11:49:08;38;31;
72329;PMS5003;60660;52.076;5.110;2023-03-08T11:51:31;43;43;
72329;PMS5003;60660;52.076;5.110;2023-03-08T11:53:58;48;39;
72329;PMS5003;60660;52.076;5.110;2023-03-08T11:56:26;46;40;
72329;PMS5003;60660;52.076;5.110;2023-03-08T11:58:47;48;41;
72329;PMS5003;60660;52.076;5.110;2023-03-08T12:01:13;39;33;
72329;PMS5003;60660;52.076;5.110;2023-03-08T12:03:42;37;33;
72329;PMS5003;60660;52.076;5.110;2023-03-08T12:06:05;51;40;
72329;PMS5003;60660;52.076;5.110;2023-03-08T12:08:34;40;35;
72329;PMS5003;60660;52.076;5.110;2023-03-08T12:10:53;44;37;
72329;PMS5003;60660;52.076;5.110;2023-03-08T12:13:19;34;30;
72329;PMS5003;60660;52.076;5.110;2023-03-08T12:15:45;40;34;
72329;PMS5003;60660;52.076;5.110;2023-03-08T12:18:10;37;30;
72329;PMS5003;60660;52.076;5.110;2023-03-08T12:20:36;43;35;
72329;PMS5003;60660;52.076;5.110;2023-03-08T12:23:00;47;36;
72329;PMS5003;60660;52.076;5.110;2023-03-08T12:25:25;40;35;
72329;PMS5003;60660;52.076;5.110;2023-03-08T12:27:52;33;27;
72329;PMS5003;60660;52.076;5.110;2023-03-08T12:30:18;35;31;
72329;PMS5003;60660;52.076;5.110;2023-03-08T12:32:41;40;31;
72329;PMS5003;60660;52.076;5.110;2023-03-08T12:35:23;38;35;
72329;PMS5003;60660;52.076;5.110;2023-03-08T12:37:32;37;32;
72329;PMS5003;60660;52.076;5.110;2023-03-08T12:39:59;38;31;
72329;PMS5003;60660;52.076;5.110;2023-03-08T12:42:27;35;31;
72329;PMS5003;60660;52.076;5.110;2023-03-08T12:44:48;38;34;
72329;PMS5003;60660;52.076;5.110;2023-03-08T12:47:17;32;25;
72329;PMS5003;60660;52.076;5.110;2023-03-08T12:49:40;38;31;
72329;PMS5003;60660;52.076;5.110;2023-03-08T12:52:06;41;31;
72329;PMS5003;60660;52.076;5.110;2023-03-08T12:54:31;36;32;
72329;PMS5003;60660;52.076;5.110;2023-03-08T12:56:55;30;28;
72329;PMS5003;60660;52.076;5.110;2023-03-08T12:59:24;26;24;
72329;PMS5003;60660;52.076;5.110;2023-03-08T13:01:57;30;27;
72329;PMS5003;60660;52.076;5.110;2023-03-08T13:04:28;30;27;
72329;PMS5003;60660;52.076;5.110;2023-03-08T13:06:46;31;28;
72329;PMS5003;60660;52.076;5.110;2023-03-08T13:09:04;35;31;
72329;PMS5003;60660;52.076;5.110;2023-03-08T13:11:36;39;32;
72329;PMS5003;60660;52.076;5.110;2023-03-08T13:13:56;33;29;
72329;PMS5003;60660;52.076;5.110;2023-03-08T13:16:21;36;33;
72329;PMS5003;60660;52.076;5.110;2023-03-08T13:18:45;35;31;
72329;PMS5003;60660;52.076;5.110;2023-03-08T13:21:19;36;33;
72329;PMS5003;60660;52.076;5.110;2023-03-08T13:23:35;40;35;
72329;PMS5003;60660;52.076;5.110;2023-03-08T13:26:05;29;24;
72329;PMS5003;60660;52.076;5.110;2023-03-08T13:28:26;32;29;
72329;PMS5003;60660;52.076;5.110;2023-03-08T13:30:51;42;35;
72329;PMS5003;60660;52.076;5.110;2023-03-08T13:33:17;28;27;
72329;PMS5003;60660;52.076;5.110;2023-03-08T13:35:41;31;25;
72329;PMS5003;60660;52.076;5.110;2023-03-08T13:38:15;31;27;
72329;PMS5003;60660;52.076;5.110;2023-03-08T13:40:31;39;33;
72329;PMS5003;60660;52.076;5.110;2023-03-08T13:42:58;39;38;
72329;PMS5003;60660;52.076;5.110;2023-03-08T13:45:27;41;35;
72329;PMS5003;60660;52.076;5.110;2023-03-08T13:47:48;39;32;
72329;PMS5003;60660;52.076;5.110;2023-03-08T13:50:16;36;33;
72329;PMS5003;60660;52.076;5.110;2023-03-08T13:52:39;34;30;
72329;PMS5003;60660;52.076;5.110;2023-03-08T13:55:05;40;36;
72329;PMS5003;60660;52.076;5.110;2023-03-08T13:57:30;39;33;
72329;PMS5003;60660;52.076;5.110;2023-03-08T13:59:56;41;36;
72329;PMS5003;60660;52.076;5.110;2023-03-08T14:02:21;34;32;
72329;PMS5003;60660;52.076;5.110;2023-03-08T14:04:46;35;31;
72329;PMS5003;60660;52.076;5.110;2023-03-08T14:07:16;36;34;
72329;PMS5003;60660;52.076;5.110;2023-03-08T14:09:37;45;39;
72329;PMS5003;60660;52.076;5.110;2023-03-08T14:12:03;41;35;
72329;PMS5003;60660;52.076;5.110;2023-03-08T14:14:28;35;32;
72329;PMS5003;60660;52.076;5.110;2023-03-08T14:16:53;42;35;
72329;PMS5003;60660;52.076;5.110;2023-03-08T14:19:20;43;37;
72329;PMS5003;60660;52.076;5.110;2023-03-08T14:21:46;45;37;
72329;PMS5003;60660;52.076;5.110;2023-03-08T14:24:14;40;36;
72329;PMS5003;60660;52.076;5.110;2023-03-08T14:26:35;48;45;
72329;PMS5003;60660;52.076;5.110;2023-03-08T14:29:02;42;38;
72329;PMS5003;60660;52.076;5.110;2023-03-08T14:31:26;43;37;
72329;PMS5003;60660;52.076;5.110;2023-03-08T14:33:54;49;45;
72329;PMS5003;60660;52.076;5.110;2023-03-08T14:36:17;46;40;
72329;PMS5003;60660;52.076;5.110;2023-03-08T14:38:46;52;45;
72329;PMS5003;60660;52.076;5.110;2023-03-08T14:41:08;50;42;
72329;PMS5003;60660;52.076;5.110;2023-03-08T14:43:33;52;42;
72329;PMS5003;60660;52.076;5.110;2023-03-08T14:46:00;53;40;
72329;PMS5003;60660;52.076;5.110;2023-03-08T14:48:27;53;47;
72329;PMS5003;60660;52.076;5.110;2023-03-08T14:50:51;53;46;
72329;PMS5003;60660;52.076;5.110;2023-03-08T14:53:22;56;48;
72329;PMS5003;60660;52.076;5.110;2023-03-08T14:55:42;54;47;
72329;PMS5003;60660;52.076;5.110;2023-03-08T14:58:08;52;45;
72329;PMS5003;60660;52.076;5.110;2023-03-08T15:00:33;50;40;
72329;PMS5003;60660;52.076;5.110;2023-03-08T15:02:58;51;42;
72329;PMS5003;60660;52.076;5.110;2023-03-08T15:05:23;52;48;
72329;PMS5003;60660;52.076;5.110;2023-03-08T15:07:49;60;46;
72329;PMS5003;60660;52.076;5.110;2023-03-08T15:10:18;55;49;
72329;PMS5003;60660;52.076;5.110;2023-03-08T15:12:39;46;42;
72329;PMS5003;60660;52.076;5.110;2023-03-08T15:15:08;50;46;
72329;PMS5003;60660;52.076;5.110;2023-03-08T15:17:30;62;53;
72329;PMS5003;60660;52.076;5.110;2023-03-08T15:19:56;52;47;
72329;PMS5003;60660;52.076;5.110;2023-03-08T15:22:21;60;48;
72329;PMS5003;60660;52.076;5.110;2023-03-08T15:24:47;54;46;
72329;PMS5003;60660;52.076;5.110;2023-03-08T15:27:13;48;44;
72329;PMS5003;60660;52.076;5.110;2023-03-08T15:29:38;45;41;
72329;PMS5003;60660;52.076;5.110;2023-03-08T15:32:03;51;45;
72329;PMS5003;60660;52.076;5.110;2023-03-08T15:34:28;56;52;
72329;PMS5003;60660;52.076;5.110;2023-03-08T15:36:53;46;39;
72329;PMS5003;60660;52.076;5.110;2023-03-08T15:39:19;49;41;
72329;PMS5003;60660;52.076;5.110;2023-03-08T15:41:45;63;45;
72329;PMS5003;60660;52.076;5.110;2023-03-08T15:44:10;52;42;
72329;PMS5003;60660;52.076;5.110;2023-03-08T15:46:36;48;44;
72329;PMS5003;60660;52.076;5.110;2023-03-08T15:49:01;51;40;
72329;PMS5003;60660;52.076;5.110;2023-03-08T15:51:27;52;44;
72329;PMS5003;60660;52.076;5.110;2023-03-08T15:53:51;46;37;
72329;PMS5003;60660;52.076;5.110;2023-03-08T15:56:17;41;37;
72329;PMS5003;60660;52.076;5.110;2023-03-08T15:58:43;40;39;
72329;PMS5003;60660;52.076;5.110;2023-03-08T16:01:08;40;38;
72329;PMS5003;60660;52.076;5.110;2023-03-08T16:03:34;44;37;
72329;PMS5003;60660;52.076;5.110;2023-03-08T16:06:00;39;33;
72329;PMS5003;60660;52.076;5.110;2023-03-08T16:08:25;43;37;
72329;PMS5003;60660;52.076;5.110;2023-03-08T16:10:51;41;36;
72329;PMS5003;60660;52.076;5.110;2023-03-08T16:13:16;40;33;
72329;PMS5003;60660;52.076;5.110;2023-03-08T16:15:42;49;36;
72329;PMS5003;60660;52.076;5.110;2023-03-08T16:18:07;39;35;
72329;PMS5003;60660;52.076;5.110;2023-03-08T16:20:32;39;35;
72329;PMS5003;60660;52.076;5.110;2023-03-08T16:22:57;33;29;
72329;PMS5003;60660;52.076;5.110;2023-03-08T16:25:23;46;43;
72329;PMS5003;60660;52.076;5.110;2023-03-08T16:27:48;30;26;
72329;PMS5003;60660;52.076;5.110;2023-03-08T16:30:14;29;28;
72329;PMS5003;60660;52.076;5.110;2023-03-08T16:32:39;41;32;
72329;PMS5003;60660;52.076;5.110;2023-03-08T16:35:05;33;31;
72329;PMS5003;60660;52.076;5.110;2023-03-08T16:37:30;38;31;
72329;PMS5003;60660;52.076;5.110;2023-03-08T16:39:56;32;28;
72329;PMS5003;60660;52.076;5.110;2023-03-08T16:42:21;37;30;
72329;PMS5003;60660;52.076;5.110;2023-03-08T16:44:47;40;39;
72329;PMS5003;60660;52.076;5.110;2023-03-08T16:47:12;39;32;
72329;PMS5003;60660;52.076;5.110;2023-03-08T16:49:37;29;26;
72329;PMS5003;60660;52.076;5.110;2023-03-08T16:52:03;37;32;
72329;PMS5003;60660;52.076;5.110;2023-03-08T16:54:28;43;33;
72329;PMS5003;60660;52.076;5.110;2023-03-08T16:56:54;35;31;
72329;PMS5003;60660;52.076;5.110;2023-03-08T16:59:20;50;46;
72329;PMS5003;60660;52.076;5.110;2023-03-08T17:01:46;40;36;
72329;PMS5003;60660;52.076;5.110;2023-03-08T17:04:11;35;33;
72329;PMS5003;60660;52.076;5.110;2023-03-08T17:06:37;49;41;
72329;PMS5003;60660;52.076;5.110;2023-03-08T17:09:03;38;34;
72329;PMS5003;60660;52.076;5.110;2023-03-08T17:11:28;38;33;
72329;PMS5003;60660;52.076;5.110;2023-03-08T17:13:54;43;39;
72329;PMS5003;60660;52.076;5.110;2023-03-08T17:16:19;43;40;
72329;PMS5003;60660;52.076;5.110;2023-03-08T17:18:45;42;35;
72329;PMS5003;60660;52.076;5.110;2023-03-08T17:21:10;52;45;
72329;PMS5003;60660;52.076;5.110;2023-03-08T17:23:36;49;40;
72329;PMS5003;60660;52.076;5.110;2023-03-08T17:26:03;60;44;
72329;PMS5003;60660;52.076;5.110;2023-03-08T17:28:27;33;29;
72329;PMS5003;60660;52.076;5.110;2023-03-08T17:30:52;54;43;
72329;PMS5003;60660;52.076;5.110;2023-03-08T17:33:18;51;43;
72329;PMS5003;60660;52.076;5.110;2023-03-08T17:35:44;44;37;
72329;PMS5003;60660;52.076;5.110;2023-03-08T17:38:09;42;40;
72329;PMS5003;60660;52.076;5.110;2023-03-08T17:40:36;43;39;
72329;PMS5003;60660;52.076;5.110;2023-03-08T17:43:00;50;42;
72329;PMS5003;60660;52.076;5.110;2023-03-08T17:45:26;47;39;
72329;PMS5003;60660;52.076;5.110;2023-03-08T17:47:51;47;44;
72329;PMS5003;60660;52.076;5.110;2023-03-08T17:50:16;56;47;
72329;PMS5003;60660;52.076;5.110;2023-03-08T17:52:42;56;44;
72329;PMS5003;60660;52.076;5.110;2023-03-08T17:55:08;50;46;
72329;PMS5003;60660;52.076;5.110;2023-03-08T17:57:33;51;44;
72329;PMS5003;60660;52.076;5.110;2023-03-08T17:59:57;49;43;
72329;PMS5003;60660;52.076;5.110;2023-03-08T18:02:23;46;43;
72329;PMS5003;60660;52.076;5.110;2023-03-08T18:04:49;44;37;
72329;PMS5003;60660;52.076;5.110;2023-03-08T18:07:14;50;43;
72329;PMS5003;60660;52.076;5.110;2023-03-08T18:09:39;47;42;
72329;PMS5003;60660;52.076;5.110;2023-03-08T18:12:04;47;44;
72329;PMS5003;60660;52.076;5.110;2023-03-08T18:14:31;64;57;
72329;PMS5003;60660;52.076;5.110;2023-03-08T18:16:55;61;47;
72329;PMS5003;60660;52.076;5.110;2023-03-08T18:19:21;60;47;
72329;PMS5003;60660;52.076;5.110;2023-03-08T18:21:52;70;64;
72329;PMS5003;60660;52.076;5.110;2023-03-08T18:24:12;61;49;
72329;PMS5003;60660;52.076;5.110;2023-03-08T18:26:37;54;49;
72329;PMS5003;60660;52.076;5.110;2023-03-08T18:29:03;72;61;
72329;PMS5003;60660;52.076;5.110;2023-03-08T18:31:29;72;60;
72329;PMS5003;60660;52.076;5.110;2023-03-08T18:33:54;62;48;
72329;PMS5003;60660;52.076;5.110;2023-03-08T18:36:19;102;92;
72329;PMS5003;60660;52.076;5.110;2023-03-08T18:38:45;78;69;
72329;PMS5003;60660;52.076;5.110;2023-03-08T18:41:11;88;65;
72329;PMS5003;60660;52.076;5.110;2023-03-08T18:43:35;75;68;
72329;PMS5003;60660;52.076;5.110;2023-03-08T18:46:01;54;51;
72329;PMS5003;60660;52.076;5.110;2023-03-08T18:48:27;87;78;
72329;PMS5003;60660;52.076;5.110;2023-03-08T18:50:52;67;56;
72329;PMS5003;60660;52.076;5.110;2023-03-08T18:53:17;68;60;
72329;PMS5003;60660;52.076;5.110;2023-03-08T18:55:51;65;57;
72329;PMS5003;60660;52.076;5.110;2023-03-08T18:58:08;55;50;
72329;PMS5003;60660;52.076;5.110;2023-03-08T19:00:34;51;47;
72329;PMS5003;60660;52.076;5.110;2023-03-08T19:03:00;74;62;
72329;PMS5003;60660;52.076;5.110;2023-03-08T19:05:25;55;46;
72329;PMS5003;60660;52.076;5.110;2023-03-08T19:07:51;70;54;
72329;PMS5003;60660;52.076;5.110;2023-03-08T19:10:16;67;61;
72329;PMS5003;60660;52.076;5.110;2023-03-08T19:12:42;84;74;
72329;PMS5003;60660;52.076;5.110;2023-03-08T19:15:07;90;79;
72329;PMS5003;60660;52.076;5.110;2023-03-08T19:17:32;74;65;
72329;PMS5003;60660;52.076;5.110;2023-03-08T19:19:57;80;67;
72329;PMS5003;60660;52.076;5.110;2023-03-08T19:22:22;91;81;
72329;PMS5003;60660;52.076;5.110;2023-03-08T19:24:48;65;57;
72329;PMS5003;60660;52.076;5.110;2023-03-08T19:27:13;85;75;
72329;PMS5003;60660;52.076;5.110;2023-03-08T19:29:39;86;74;
72329;PMS5003;60660;52.076;5.110;2023-03-08T19:32:05;68;65;
72329;PMS5003;60660;52.076;5.110;2023-03-08T19:34:30;84;75;
72329;PMS5003;60660;52.076;5.110;2023-03-08T19:36:55;55;51;
72329;PMS5003;60660;52.076;5.110;2023-03-08T19:39:22;46;43;
72329;PMS5003;60660;52.076;5.110;2023-03-08T19:41:46;65;57;
72329;PMS5003;60660;52.076;5.110;2023-03-08T19:44:11;79;74;
72329;PMS5003;60660;52.076;5.110;2023-03-08T19:46:37;54;50;
72329;PMS5003;60660;52.076;5.110;2023-03-08T19:49:03;105;94;
72329;PMS5003;60660;52.076;5.110;2023-03-08T19:51:27;79;71;
72329;PMS5003;60660;52.076;5.110;2023-03-08T19:53:53;56;51;
72329;PMS5003;60660;52.076;5.110;2023-03-08T19:56:19;70;57;
72329;PMS5003;60660;52.076;5.110;2023-03-08T19:58:44;92;74;
72329;PMS5003;60660;52.076;5.110;2023-03-08T20:01:10;49;46;
72329;PMS5003;60660;52.076;5.110;2023-03-08T20:03:35;56;43;
72329;PMS5003;60660;52.076;5.110;2023-03-08T20:06:01;46;42;
72329;PMS5003;60660;52.076;5.110;2023-03-08T20:08:26;56;53;
72329;PMS5003;60660;52.076;5.110;2023-03-08T20:10:52;56;53;
72329;PMS5003;60660;52.076;5.110;2023-03-08T20:13:18;46;42;
72329;PMS5003;60660;52.076;5.110;2023-03-08T20:15:43;56;51;
72329;PMS5003;60660;52.076;5.110;2023-03-08T20:18:08;52;48;
72329;PMS5003;60660;52.076;5.110;2023-03-08T20:20:34;46;41;
72329;PMS5003;60660;52.076;5.110;2023-03-08T20:23:04;49;45;
72329;PMS5003;60660;52.076;5.110;2023-03-08T20:25:24;39;36;
72329;PMS5003;60660;52.076;5.110;2023-03-08T20:27:49;38;35;
72329;PMS5003;60660;52.076;5.110;2023-03-08T20:30:15;57;48;
72329;PMS5003;60660;52.076;5.110;2023-03-08T20:32:41;46;38;
72329;PMS5003;60660;52.076;5.110;2023-03-08T20:35:08;45;44;
72329;PMS5003;60660;52.076;5.110;2023-03-08T20:37:31;49;47;
72329;PMS5003;60660;52.076;5.110;2023-03-08T20:39:56;37;32;
72329;PMS5003;60660;52.076;5.110;2023-03-08T20:42:22;48;41;
72329;PMS5003;60660;52.076;5.110;2023-03-08T20:44:47;45;38;
72329;PMS5003;60660;52.076;5.110;2023-03-08T20:47:12;52;49;
72329;PMS5003;60660;52.076;5.110;2023-03-08T20:49:39;55;48;
72329;PMS5003;60660;52.076;5.110;2023-03-08T20:52:03;48;42;
72329;PMS5003;60660;52.076;5.110;2023-03-08T20:54:28;54;46;
72329;PMS5003;60660;52.076;5.110;2023-03-08T20:56:53;48;42;
72329;PMS5003;60660;52.076;5.110;2023-03-08T20:59:23;32;31;
72329;PMS5003;60660;52.076;5.110;2023-03-08T21:01:49;60;55;
72329;PMS5003;60660;52.076;5.110;2023-03-08T21:04:09;58;54;
72329;PMS5003;60660;52.076;5.110;2023-03-08T21:06:34;48;37;
72329;PMS5003;60660;52.076;5.110;2023-03-08T21:09:00;44;42;
72329;PMS5003;60660;52.076;5.110;2023-03-08T21:11:26;45;41;
72329;PMS5003;60660;52.076;5.110;2023-03-08T21:13:52;49;45;
72329;PMS5003;60660;52.076;5.110;2023-03-08T21:16:19;61;53;
72329;PMS5003;60660;52.076;5.110;2023-03-08T21:18:46;46;42;
72329;PMS5003;60660;52.076;5.110;2023-03-08T21:21:15;52;48;
72329;PMS5003;60660;52.076;5.110;2023-03-08T21:23:35;43;40;
72329;PMS5003;60660;52.076;5.110;2023-03-08T21:26:00;54;51;
72329;PMS5003;60660;52.076;5.110;2023-03-08T21:28:25;51;48;
72329;PMS5003;60660;52.076;5.110;2023-03-08T21:30:51;56;45;
72329;PMS5003;60660;52.076;5.110;2023-03-08T21:33:21;42;41;
72329;PMS5003;60660;52.076;5.110;2023-03-08T21:35:42;39;36;
72329;PMS5003;60660;52.076;5.110;2023-03-08T21:38:07;49;42;
72329;PMS5003;60660;52.076;5.110;2023-03-08T21:40:34;51;46;
72329;PMS5003;60660;52.076;5.110;2023-03-08T21:42:57;59;51;
72329;PMS5003;60660;52.076;5.110;2023-03-08T21:45:23;49;38;
72329;PMS5003;60660;52.076;5.110;2023-03-08T21:47:48;55;51;
72329;PMS5003;60660;52.076;5.110;2023-03-08T21:50:14;62;56;
72329;PMS5003;60660;52.076;5.110;2023-03-08T21:52:39;59;50;
72329;PMS5003;60660;52.076;5.110;2023-03-08T21:55:05;99;89;
72329;PMS5003;60660;52.076;5.110;2023-03-08T21:57:31;57;50;
72329;PMS5003;60660;52.076;5.110;2023-03-08T21:59:56;64;57;
72329;PMS5003;60660;52.076;5.110;2023-03-08T22:02:21;52;43;
72329;PMS5003;60660;52.076;5.110;2023-03-08T22:04:47;89;82;
72329;PMS5003;60660;52.076;5.110;2023-03-08T22:07:12;68;59;
72329;PMS5003;60660;52.076;5.110;2023-03-08T22:09:37;65;61;
72329;PMS5003;60660;52.076;5.110;2023-03-08T22:12:03;55;51;
72329;PMS5003;60660;52.076;5.110;2023-03-08T22:14:28;54;48;
72329;PMS5003;60660;52.076;5.110;2023-03-08T22:16:53;49;45;
72329;PMS5003;60660;52.076;5.110;2023-03-08T22:19:18;51;46;
72329;PMS5003;60660;52.076;5.110;2023-03-08T22:21:45;55;42;
72329;PMS5003;60660;52.076;5.110;2023-03-08T22:24:09;52;46;
72329;PMS5003;60660;52.076;5.110;2023-03-08T22:26:35;46;43;
72329;PMS5003;60660;52.076;5.110;2023-03-08T22:29:00;56;43;
72329;PMS5003;60660;52.076;5.110;2023-03-08T22:31:27;50;45;
72329;PMS5003;60660;52.076;5.110;2023-03-08T22:33:51;52;49;
72329;PMS5003;60660;52.076;5.110;2023-03-08T22:36:17;60;48;
72329;PMS5003;60660;52.076;5.110;2023-03-08T22:38:42;52;46;
72329;PMS5003;60660;52.076;5.110;2023-03-08T22:41:08;45;36;
72329;PMS5003;60660;52.076;5.110;2023-03-08T22:43:33;45;41;
72329;PMS5003;60660;52.076;5.110;2023-03-08T22:46:03;53;45;
72329;PMS5003;60660;52.076;5.110;2023-03-08T22:48:24;51;45;
72329;PMS5003;60660;52.076;5.110;2023-03-08T22:50:49;49;44;
72329;PMS5003;60660;52.076;5.110;2023-03-08T22:53:14;51;45;
72329;PMS5003;60660;52.076;5.110;2023-03-08T22:55:44;46;43;
72329;PMS5003;60660;52.076;5.110;2023-03-08T22:58:05;47;41;
72329;PMS5003;60660;52.076;5.110;2023-03-08T23:00:31;58;48;
72329;PMS5003;60660;52.076;5.110;2023-03-08T23:02:57;49;44;
72329;PMS5003;60660;52.076;5.110;2023-03-08T23:05:22;55;47;
72329;PMS5003;60660;52.076;5.110;2023-03-08T23:07:47;53;41;
72329;PMS5003;60660;52.076;5.110;2023-03-08T23:10:13;53;43;
72329;PMS5003;60660;52.076;5.110;2023-03-08T23:12:38;53;48;
72329;PMS5003;60660;52.076;5.110;2023-03-08T23:15:04;50;43;
72329;PMS5003;60660;52.076;5.110;2023-03-08T23:17:29;54;48;
72329;PMS5003;60660;52.076;5.110;2023-03-08T23:19:55;60;48;
72329;PMS5003;60660;52.076;5.110;2023-03-08T23:22:20;51;43;
72329;PMS5003;60660;52.076;5.110;2023-03-08T23:24:46;37;35;
72329;PMS5003;60660;52.076;5.110;2023-03-08T23:27:39;46;41;
72329;PMS5003;60660;52.076;5.110;2023-03-08T23:30:04;52;48;
72329;PMS5003;60660;52.076;5.110;2023-03-08T23:32:29;51;43;
72329;PMS5003;60660;52.076;5.110;2023-03-08T23:34:55;48;40;
72329;PMS5003;60660;52.076;5.110;2023-03-08T23:37:21;55;47;
72329;PMS5003;60660;52.076;5.110;2023-03-08T23:39:46;45;41;
72329;PMS5003;60660;52.076;5.110;2023-03-08T23:42:11;44;38;
72329;PMS5003;60660;52.076;5.110;2023-03-08T23:44:36;49;45;
72329;PMS5003;60660;52.076;5.110;2023-03-08T23:47:02;54;48;
72329;PMS5003;60660;52.076;5.110;2023-03-08T23:49:27;48;44;
72329;PMS5003;60660;52.076;5.110;2023-03-08T23:51:52;54;41;
72329;PMS5003;60660;52.076;5.110;2023-03-08T23:54:18;54;46;
72329;PMS5003;60660;52.076;5.110;2023-03-08T23:56:43;47;41;
72329;PMS5003;60660;52.076;5.110;2023-03-08T23:59:10;56;43;
